createdAt,value
2023-04-09T00:00:01.172Z,550.45
2023-04-09T00:02:29.593Z,540.08
2023-04-09T00:04:58.000Z,544.95
2023-04-09T00:07:26.391Z,544.92
2023-04-09T00:09:56.488Z,562.00
2023-04-09T00:12:24.800Z,539.95
2023-04-09T00:14:53.488Z,546.53
2023-04-09T00:17:21.942Z,540.38
2023-04-09T00:19:50.361Z,555.38
2023-04-09T00:22:18.638Z,531.53
2023-04-09T00:24:46.989Z,550.08
2023-04-09T00:27:16.734Z,575.05
2023-04-09T00:29:45.321Z,550.90
2023-04-09T00:32:13.719Z,556.28
2023-04-09T00:34:42.052Z,546.75
2023-04-09T00:37:10.366Z,552.42
2023-04-09T00:39:38.734Z,565.50
2023-04-09T00:42:07.090Z,542.10
2023-04-09T00:44:36.829Z,561.05
2023-04-09T00:47:05.601Z,582.28
2023-04-09T00:49:34.442Z,561.75
2023-04-09T00:52:02.846Z,556.92
2023-04-09T00:54:31.228Z,555.65
2023-04-09T00:56:59.661Z,560.80
2023-04-09T00:59:28.100Z,546.90
2023-04-09T01:01:57.829Z,572.15
2023-04-09T01:04:26.638Z,571.53
2023-04-09T01:07:00.112Z,575.50
2023-04-09T01:09:34.723Z,538.22
2023-04-09T01:12:10.779Z,560.88
2023-04-09T01:14:41.926Z,555.38
2023-04-09T01:17:16.933Z,533.22
2023-04-09T01:19:50.232Z,555.83
2023-04-09T01:22:30.748Z,571.70
2023-04-09T01:25:06.068Z,547.33
2023-04-09T01:27:55.757Z,540.22
2023-04-09T01:30:25.915Z,575.58
2023-04-09T01:32:55.397Z,567.25
2023-04-09T01:35:24.046Z,545.13
2023-04-09T01:37:53.375Z,561.65
2023-04-09T01:40:21.823Z,538.03
2023-04-09T01:42:51.077Z,547.80
2023-04-09T01:45:19.784Z,564.38
2023-04-09T01:47:49.711Z,554.65
2023-04-09T01:50:18.165Z,556.45
2023-04-09T01:52:46.624Z,537.40
2023-04-09T01:55:14.976Z,566.65
2023-04-09T01:57:43.361Z,557.60
2023-04-09T02:00:12.970Z,555.15
2023-04-09T02:02:48.082Z,548.78
2023-04-09T02:05:19.655Z,558.88
2023-04-09T02:07:51.374Z,550.28
2023-04-09T02:10:21.601Z,550.80
2023-04-09T02:12:52.293Z,556.35
2023-04-09T02:15:24.173Z,561.38
2023-04-09T02:17:52.510Z,542.22
2023-04-09T02:20:22.745Z,555.25
2023-04-09T02:22:51.039Z,553.75
2023-04-09T02:25:19.686Z,539.05
2023-04-09T02:27:48.010Z,551.92
2023-04-09T02:30:16.523Z,553.22
2023-04-09T02:32:44.915Z,558.88
2023-04-09T02:35:14.524Z,534.15
2023-04-09T02:37:44.175Z,554.70
2023-04-09T02:40:13.406Z,541.78
2023-04-09T02:42:41.704Z,549.85
2023-04-09T02:45:11.166Z,562.53
2023-04-09T02:47:39.546Z,563.15
2023-04-09T02:50:09.161Z,542.45
2023-04-09T02:52:37.643Z,549.45
2023-04-09T02:55:08.549Z,543.33
2023-04-09T02:57:37.311Z,539.95
2023-04-09T03:00:06.435Z,558.10
2023-04-09T03:02:34.934Z,539.40
2023-04-09T03:05:03.399Z,551.92
2023-04-09T03:07:31.835Z,547.78
2023-04-09T03:10:00.192Z,551.72
2023-04-09T03:12:30.047Z,542.60
2023-04-09T03:14:58.369Z,545.05
2023-04-09T03:17:27.256Z,538.42
2023-04-09T03:19:55.767Z,545.05
2023-04-09T03:22:24.064Z,541.97
2023-04-09T03:24:52.362Z,541.35
2023-04-09T03:27:20.760Z,536.45
2023-04-09T03:29:50.429Z,530.78
2023-04-09T03:32:19.161Z,606.25
2023-04-09T03:34:47.500Z,590.70
2023-04-09T03:37:15.863Z,549.40
2023-04-09T03:39:44.190Z,615.10
2023-04-09T03:42:12.530Z,547.78
2023-04-09T03:44:40.838Z,565.58
2023-04-09T03:47:10.837Z,557.60
2023-04-09T03:49:39.276Z,566.17
2023-04-09T03:52:08.229Z,555.45
2023-04-09T03:54:36.545Z,523.30
2023-04-09T03:57:04.960Z,562.53
2023-04-09T03:59:33.258Z,543.33
2023-04-09T04:02:01.831Z,540.30
2023-04-09T04:04:31.678Z,538.55
2023-04-09T04:07:00.144Z,546.08
2023-04-09T04:09:30.497Z,558.72
2023-04-09T04:11:58.975Z,545.75
2023-04-09T04:14:27.353Z,561.53
2023-04-09T04:16:58.905Z,534.63
2023-04-09T04:19:27.240Z,536.17
2023-04-09T04:21:56.883Z,552.47
2023-04-09T04:24:25.299Z,546.50
2023-04-09T04:26:53.822Z,539.30
2023-04-09T04:29:22.163Z,551.17
2023-04-09T04:31:50.566Z,553.85
2023-04-09T04:34:18.961Z,586.08
2023-04-09T04:36:47.599Z,545.03
2023-04-09T04:39:17.198Z,550.22
2023-04-09T04:41:45.534Z,543.13
2023-04-09T04:44:13.845Z,556.70
2023-04-09T04:46:42.184Z,550.50
2023-04-09T04:49:10.477Z,554.25
2023-04-09T04:51:38.783Z,584.92
2023-04-09T04:54:07.089Z,556.95
2023-04-09T04:56:36.749Z,559.75
2023-04-09T04:59:05.047Z,542.25
2023-04-09T05:01:33.515Z,554.08
2023-04-09T05:04:03.177Z,560.42
2023-04-09T05:06:31.541Z,539.95
2023-04-09T05:09:01.414Z,557.53
2023-04-09T05:11:29.740Z,552.40
2023-04-09T05:13:59.486Z,561.42
2023-04-09T05:16:28.049Z,550.67
2023-04-09T05:18:56.376Z,530.42
2023-04-09T05:21:24.705Z,539.95
2023-04-09T05:23:52.994Z,542.10
2023-04-09T05:26:21.529Z,566.47
2023-04-09T05:28:50.416Z,566.45
2023-04-09T05:31:20.399Z,554.70
2023-04-09T05:33:48.723Z,571.53
2023-04-09T05:36:18.191Z,570.97
2023-04-09T05:38:48.090Z,552.20
2023-04-09T05:41:16.554Z,561.72
2023-04-09T05:43:44.857Z,548.53
2023-04-09T05:46:13.246Z,576.15
2023-04-09T05:48:42.967Z,566.78
2023-04-09T05:51:11.256Z,572.63
2023-04-09T05:53:39.599Z,575.72
2023-04-09T05:56:15.464Z,582.35
2023-04-09T05:58:43.840Z,533.88
2023-04-09T06:01:12.167Z,556.70
2023-04-09T06:03:43.381Z,537.03
2023-04-09T06:06:11.931Z,560.22
2023-04-09T06:08:41.611Z,575.20
2023-04-09T06:11:11.247Z,539.63
2023-04-09T06:13:40.167Z,421.10
2023-04-09T06:16:09.556Z,382.02
2023-04-09T06:18:38.692Z,340.65
2023-04-09T06:21:09.915Z,341.48
2023-04-09T06:23:38.566Z,362.50
2023-04-09T06:26:07.116Z,381.45
2023-04-09T06:28:36.459Z,368.85
2023-04-09T06:31:04.846Z,365.48
2023-04-09T06:33:33.190Z,358.02
2023-04-09T06:36:01.770Z,403.92
2023-04-09T06:38:31.493Z,421.88
2023-04-09T06:40:59.859Z,459.48
2023-04-09T06:43:28.286Z,353.25
2023-04-09T06:45:56.643Z,365.15
2023-04-09T06:48:24.932Z,378.48
2023-04-09T06:50:53.250Z,424.90
2023-04-09T06:53:21.615Z,394.63
2023-04-09T06:55:51.613Z,478.30
2023-04-09T06:58:20.984Z,497.00
2023-04-09T07:00:49.334Z,341.38
2023-04-09T07:03:17.842Z,412.42
2023-04-09T07:05:46.620Z,497.10
2023-04-09T07:08:15.038Z,460.85
2023-04-09T07:10:43.316Z,296.10
2023-04-09T07:13:12.993Z,306.52
2023-04-09T07:15:42.529Z,312.63
2023-04-09T07:18:11.111Z,393.20
2023-04-09T07:20:39.576Z,375.60
2023-04-09T07:23:07.909Z,373.83
2023-04-09T07:25:36.384Z,361.55
2023-04-09T07:28:04.768Z,553.40
2023-04-09T07:30:34.535Z,610.78
2023-04-09T07:33:02.894Z,364.83
2023-04-09T07:35:32.028Z,464.17
2023-04-09T07:38:00.408Z,368.98
2023-04-09T07:40:28.959Z,381.35
2023-04-09T07:42:58.134Z,350.02
2023-04-09T07:45:26.719Z,380.80
2023-04-09T07:47:56.519Z,382.17
2023-04-09T07:50:25.052Z,431.85
2023-04-09T07:52:53.378Z,366.65
2023-04-09T07:55:21.827Z,390.27
2023-04-09T07:57:51.659Z,384.23
2023-04-09T08:00:20.335Z,363.48
2023-04-09T08:02:48.902Z,419.67
2023-04-09T08:05:18.901Z,357.40
2023-04-09T08:07:47.390Z,424.75
2023-04-09T08:10:16.327Z,385.15
2023-04-09T08:12:45.013Z,356.55
2023-04-09T08:15:13.489Z,362.85
2023-04-09T08:17:45.185Z,468.08
2023-04-09T08:20:14.306Z,385.40
2023-04-09T08:22:44.127Z,375.92
2023-04-09T08:25:12.497Z,318.17
2023-04-09T08:27:41.226Z,340.55
2023-04-09T08:30:11.018Z,335.23
2023-04-09T08:32:39.381Z,326.13
2023-04-09T08:35:09.104Z,384.40
2023-04-09T08:37:37.469Z,473.52
2023-04-09T08:40:08.726Z,303.73
2023-04-09T08:42:37.976Z,358.15
2023-04-09T08:45:07.108Z,327.75
2023-04-09T08:47:36.125Z,441.55
2023-04-09T08:50:04.731Z,249.13
2023-04-09T08:52:34.482Z,323.77
2023-04-09T08:55:03.013Z,318.38
2023-04-09T08:57:39.069Z,287.35
2023-04-09T09:00:09.345Z,515.45
2023-04-09T09:02:38.655Z,271.70
2023-04-09T09:05:07.806Z,310.83
2023-04-09T09:07:36.234Z,331.95
2023-04-09T09:10:04.769Z,330.17
2023-04-09T09:12:39.491Z,318.33
2023-04-09T09:15:23.724Z,374.92
2023-04-09T09:17:56.319Z,528.35
2023-04-09T09:20:25.548Z,273.02
2023-04-09T09:22:55.741Z,352.15
2023-04-09T09:25:25.724Z,314.33
2023-04-09T09:27:55.976Z,301.70
2023-04-09T09:30:25.671Z,305.85
2023-04-09T09:32:54.899Z,306.38
2023-04-09T09:35:24.215Z,320.42
2023-04-09T09:38:04.223Z,328.30
2023-04-09T09:40:32.754Z,456.63
2023-04-09T09:43:02.422Z,409.48
2023-04-09T09:45:31.346Z,286.88
2023-04-09T09:47:59.751Z,243.48
2023-04-09T09:50:30.222Z,216.82
2023-04-09T09:53:03.148Z,300.63
2023-04-09T09:55:33.291Z,160.98
2023-04-09T09:58:05.654Z,463.02
2023-04-09T10:00:34.768Z,174.52
2023-04-09T10:03:09.028Z,187.30
2023-04-09T10:05:39.048Z,233.20
2023-04-09T10:08:07.885Z,278.35
2023-04-09T10:10:36.845Z,160.73
2023-04-09T10:13:08.033Z,149.90
2023-04-09T10:15:36.461Z,205.93
2023-04-09T10:18:04.979Z,207.93
2023-04-09T10:20:37.383Z,149.50
2023-04-09T10:23:12.995Z,183.93
2023-04-09T10:25:41.539Z,263.08
2023-04-09T10:28:18.021Z,194.80
2023-04-09T10:30:46.459Z,152.18
2023-04-09T10:33:16.673Z,162.00
2023-04-09T10:35:48.670Z,292.25
2023-04-09T10:38:17.168Z,148.90
2023-04-09T10:40:49.470Z,236.63
2023-04-09T10:43:21.350Z,208.77
2023-04-09T10:45:53.270Z,199.52
2023-04-09T10:48:22.119Z,187.18
2023-04-09T10:50:52.577Z,361.27
2023-04-09T10:53:24.789Z,240.55
2023-04-09T10:55:54.314Z,191.73
2023-04-09T10:58:23.925Z,359.63
2023-04-09T11:00:55.008Z,410.90
2023-04-09T11:03:29.038Z,160.38
2023-04-09T11:06:01.073Z,215.65
2023-04-09T11:08:33.577Z,157.90
2023-04-09T11:11:02.545Z,149.65
2023-04-09T11:13:34.104Z,282.60
2023-04-09T11:16:06.861Z,185.15
2023-04-09T11:18:36.990Z,170.35
2023-04-09T11:21:05.929Z,156.98
2023-04-09T11:23:35.017Z,249.13
2023-04-09T11:26:03.392Z,205.90
2023-04-09T11:28:33.148Z,217.80
2023-04-09T11:31:02.385Z,291.45
2023-04-09T11:33:34.310Z,207.70
2023-04-09T11:36:03.775Z,216.57
2023-04-09T11:38:33.478Z,280.77
2023-04-09T11:41:03.577Z,148.75
2023-04-09T11:43:33.243Z,136.90
2023-04-09T11:46:01.827Z,221.95
2023-04-09T11:48:31.283Z,134.30
2023-04-09T11:50:59.720Z,237.13
2023-04-09T11:53:32.248Z,153.25
2023-04-09T11:56:00.660Z,192.07
2023-04-09T11:58:29.280Z,291.85
2023-04-09T12:01:00.837Z,307.85
2023-04-09T12:03:33.864Z,160.07
2023-04-09T12:06:03.664Z,204.10
2023-04-09T12:08:34.546Z,226.05
2023-04-09T12:11:10.625Z,207.10
2023-04-09T12:13:42.832Z,175.45
2023-04-09T12:16:13.315Z,207.82
2023-04-09T12:18:42.000Z,167.00
2023-04-09T12:21:10.893Z,316.27
2023-04-09T12:23:39.540Z,166.20
2023-04-09T12:26:08.423Z,168.75
2023-04-09T12:28:36.942Z,194.85
2023-04-09T12:31:05.997Z,194.93
2023-04-09T12:33:38.971Z,199.90
2023-04-09T12:36:07.732Z,183.60
2023-04-09T12:38:36.577Z,403.42
2023-04-09T12:41:05.650Z,171.68
2023-04-09T12:43:34.433Z,323.95
2023-04-09T12:46:02.905Z,172.77
2023-04-09T12:48:31.338Z,179.15
2023-04-09T12:51:01.255Z,211.68
2023-04-09T12:53:29.649Z,250.30
2023-04-09T12:55:58.377Z,206.40
2023-04-09T12:58:27.320Z,280.77
2023-04-09T13:00:56.969Z,209.95
2023-04-09T13:03:25.879Z,268.95
2023-04-09T13:05:54.729Z,237.40
2023-04-09T13:08:24.723Z,193.55
2023-04-09T13:10:53.475Z,203.40
2023-04-09T13:13:21.775Z,333.85
2023-04-09T13:15:50.132Z,207.60
2023-04-09T13:18:18.445Z,350.00
2023-04-09T13:20:46.790Z,226.82
2023-04-09T13:23:15.430Z,310.23
2023-04-09T13:25:45.207Z,197.65
2023-04-09T13:28:13.558Z,338.25
2023-04-09T13:30:41.917Z,218.73
2023-04-09T13:33:10.401Z,234.68
2023-04-09T13:35:38.843Z,235.77
2023-04-09T13:38:07.608Z,223.95
2023-04-09T13:40:35.995Z,298.42
2023-04-09T13:43:05.684Z,256.05
2023-04-09T13:45:34.052Z,202.20
2023-04-09T13:48:02.546Z,193.82
2023-04-09T13:50:30.886Z,175.40
2023-04-09T13:52:59.221Z,209.80
2023-04-09T13:55:27.563Z,218.05
2023-04-09T13:57:56.149Z,195.13
2023-04-09T14:00:25.806Z,239.70
2023-04-09T14:02:54.317Z,259.90
2023-04-09T14:05:22.886Z,212.55
2023-04-09T14:07:51.297Z,232.38
2023-04-09T14:10:19.723Z,206.15
2023-04-09T14:12:48.074Z,223.10
2023-04-09T14:15:16.435Z,175.75
2023-04-09T14:17:46.405Z,225.68
2023-04-09T14:20:14.864Z,176.52
2023-04-09T14:22:43.286Z,241.68
2023-04-09T14:25:11.962Z,187.73
2023-04-09T14:27:40.486Z,165.38
2023-04-09T14:30:10.791Z,213.20
2023-04-09T14:32:39.179Z,195.45
2023-04-09T14:35:09.630Z,176.43
2023-04-09T14:37:40.749Z,163.90
2023-04-09T14:40:10.246Z,362.02
2023-04-09T14:42:38.595Z,181.48
2023-04-09T14:45:07.646Z,271.80
2023-04-09T14:47:36.091Z,163.38
2023-04-09T14:50:04.578Z,205.10
2023-04-09T14:52:34.363Z,222.32
2023-04-09T14:55:02.725Z,168.32
2023-04-09T14:57:31.276Z,195.60
2023-04-09T14:59:59.783Z,269.55
2023-04-09T15:02:28.532Z,187.65
2023-04-09T15:04:57.274Z,167.35
2023-04-09T15:07:25.853Z,169.10
2023-04-09T15:09:55.705Z,202.52
2023-04-09T15:12:24.028Z,232.27
2023-04-09T15:14:52.453Z,213.52
2023-04-09T15:17:20.773Z,272.23
2023-04-09T15:19:49.147Z,230.80
2023-04-09T15:22:17.523Z,183.35
2023-04-09T15:24:46.153Z,164.20
2023-04-09T15:27:15.901Z,306.67
2023-04-09T15:29:44.302Z,173.02
2023-04-09T15:32:12.773Z,190.88
2023-04-09T15:34:41.145Z,168.15
2023-04-09T15:37:09.484Z,248.27
2023-04-09T15:39:37.853Z,166.68
2023-04-09T15:42:08.778Z,160.90
2023-04-09T15:44:39.976Z,165.93
2023-04-09T15:47:08.789Z,191.50
2023-04-09T15:49:37.601Z,181.43
2023-04-09T15:52:06.256Z,195.75
2023-04-09T15:54:34.784Z,238.43
2023-04-09T15:57:04.159Z,282.85
2023-04-09T15:59:32.489Z,389.05
2023-04-09T16:02:04.432Z,174.05
2023-04-09T16:04:33.015Z,267.25
2023-04-09T16:07:02.240Z,166.68
2023-04-09T16:09:30.585Z,286.63
2023-04-09T16:11:58.915Z,260.92
2023-04-09T16:14:27.972Z,170.50
2023-04-09T16:16:56.621Z,254.63
2023-04-09T16:19:26.393Z,254.23
2023-04-09T16:21:54.745Z,400.17
2023-04-09T16:24:23.086Z,185.32
2023-04-09T16:26:51.413Z,150.02
2023-04-09T16:29:19.706Z,210.25
2023-04-09T16:31:48.054Z,165.35
2023-04-09T16:34:16.403Z,188.75
2023-04-09T16:36:46.251Z,225.77
2023-04-09T16:39:15.190Z,166.95
2023-04-09T16:41:44.189Z,202.93
2023-04-09T16:44:12.510Z,192.85
2023-04-09T16:46:40.942Z,231.65
2023-04-09T16:49:09.281Z,185.30
2023-04-09T16:51:37.991Z,170.60
2023-04-09T16:54:07.737Z,143.25
2023-04-09T16:56:36.071Z,176.93
2023-04-09T16:59:04.422Z,179.65
2023-04-09T17:01:32.840Z,166.63
2023-04-09T17:04:03.084Z,181.40
2023-04-09T17:06:31.530Z,269.20
2023-04-09T17:08:59.854Z,352.17
2023-04-09T17:11:29.533Z,173.90
2023-04-09T17:13:57.947Z,245.63
2023-04-09T17:16:26.317Z,298.90
2023-04-09T17:18:55.317Z,204.88
2023-04-09T17:21:23.926Z,161.73
2023-04-09T17:23:52.328Z,299.27
2023-04-09T17:26:20.973Z,207.00
2023-04-09T17:28:50.950Z,276.60
2023-04-09T17:31:21.984Z,234.10
2023-04-09T17:33:50.865Z,191.45
2023-04-09T17:36:19.902Z,441.02
2023-04-09T17:38:49.671Z,326.98
2023-04-09T17:41:18.046Z,193.27
2023-04-09T17:43:47.271Z,304.35
2023-04-09T17:46:17.798Z,381.27
2023-04-09T17:48:46.281Z,208.55
2023-04-09T17:51:16.375Z,238.23
2023-04-09T17:53:44.761Z,284.33
2023-04-09T17:56:17.254Z,214.20
2023-04-09T17:58:46.521Z,330.63
2023-04-09T18:01:16.310Z,310.30
2023-04-09T18:03:45.702Z,253.75
2023-04-09T18:06:15.261Z,298.80
2023-04-09T18:08:43.698Z,299.25
2023-04-09T18:11:13.558Z,388.25
2023-04-09T18:13:42.313Z,403.52
2023-04-09T18:16:11.519Z,425.20
2023-04-09T18:18:41.337Z,414.42
2023-04-09T18:21:09.725Z,369.75
2023-04-09T18:23:39.428Z,360.88
2023-04-09T18:26:08.333Z,386.60
2023-04-09T18:28:36.736Z,315.40
2023-04-09T18:31:05.348Z,383.10
2023-04-09T18:33:34.243Z,340.33
2023-04-09T18:36:04.790Z,473.38
2023-04-09T18:38:33.310Z,365.52
2023-04-09T18:41:02.208Z,317.92
2023-04-09T18:43:30.949Z,363.17
2023-04-09T18:45:59.706Z,354.77
2023-04-09T18:48:28.263Z,350.58
2023-04-09T18:50:56.702Z,335.38
2023-04-09T18:53:26.651Z,331.35
2023-04-09T18:55:55.278Z,333.20
2023-04-09T18:58:23.996Z,440.50
2023-04-09T19:00:52.453Z,337.08
2023-04-09T19:03:21.658Z,365.35
2023-04-09T19:05:50.232Z,332.42
2023-04-09T19:08:18.618Z,330.13
2023-04-09T19:10:48.524Z,371.52
2023-04-09T19:13:16.933Z,320.95
2023-04-09T19:15:45.897Z,328.48
2023-04-09T19:18:14.272Z,345.75
2023-04-09T19:20:42.861Z,335.13
2023-04-09T19:23:11.209Z,309.90
2023-04-09T19:25:39.546Z,316.15
2023-04-09T19:28:09.244Z,322.63
2023-04-09T19:30:37.566Z,302.17
2023-04-09T19:33:05.968Z,318.67
2023-04-09T19:35:35.801Z,286.55
2023-04-09T19:38:05.106Z,292.08
2023-04-09T19:40:33.611Z,301.20
2023-04-09T19:43:02.201Z,324.52
2023-04-09T19:45:31.875Z,299.95
2023-04-09T19:48:00.309Z,288.40
2023-04-09T19:50:28.906Z,296.85
2023-04-09T19:52:57.607Z,310.30
2023-04-09T19:55:26.036Z,287.80
2023-04-09T19:57:54.389Z,308.50
2023-04-09T20:00:22.858Z,279.65
2023-04-09T20:02:53.703Z,263.80
2023-04-09T20:05:22.899Z,273.88
2023-04-09T20:07:51.578Z,274.95
2023-04-09T20:10:20.421Z,273.90
2023-04-09T20:12:49.352Z,255.57
2023-04-09T20:15:19.957Z,301.33
2023-04-09T20:17:48.948Z,257.95
2023-04-09T20:20:19.906Z,260.75
2023-04-09T20:22:55.580Z,247.75
2023-04-09T20:25:24.721Z,239.77
2023-04-09T20:27:54.590Z,244.75
2023-04-09T20:30:23.101Z,246.90
2023-04-09T20:32:51.616Z,238.68
2023-04-09T20:35:21.583Z,235.85
2023-04-09T20:37:49.994Z,257.30
2023-04-09T20:40:18.322Z,248.88
2023-04-09T20:42:46.678Z,279.20
2023-04-09T20:45:15.047Z,245.57
2023-04-09T20:47:43.441Z,231.35
2023-04-09T20:50:12.371Z,243.98
2023-04-09T20:52:42.143Z,232.65
2023-04-09T20:55:10.660Z,429.27
2023-04-09T20:57:38.998Z,296.25
2023-04-09T21:00:08.820Z,243.25
2023-04-09T21:02:38.125Z,239.05
2023-04-09T21:05:19.454Z,238.85
2023-04-09T21:07:52.043Z,263.70
2023-04-09T21:10:20.423Z,251.48
2023-04-09T21:12:48.811Z,239.23
2023-04-09T21:15:17.425Z,285.45
2023-04-09T21:17:45.819Z,255.32
2023-04-09T21:20:15.156Z,249.25
2023-04-09T21:22:43.487Z,244.10
2023-04-09T21:25:15.820Z,255.50
2023-04-09T21:27:44.240Z,247.82
2023-04-09T21:30:13.184Z,245.27
2023-04-09T21:32:41.577Z,266.35
2023-04-09T21:35:10.348Z,247.07
2023-04-09T21:37:38.688Z,256.80
2023-04-09T21:40:08.381Z,261.50
2023-04-09T21:42:38.245Z,240.63
2023-04-09T21:45:07.702Z,239.30
2023-04-09T21:47:36.062Z,280.27
2023-04-09T21:50:05.055Z,231.40
2023-04-09T21:52:33.645Z,254.95
2023-04-09T21:55:02.059Z,235.98
2023-04-09T21:57:30.437Z,247.02
2023-04-09T22:00:00.326Z,250.57
2023-04-09T22:02:29.190Z,234.20
2023-04-09T22:04:59.560Z,262.27
2023-04-09T22:07:28.047Z,287.65
2023-04-09T22:09:57.585Z,266.70
2023-04-09T22:12:25.900Z,316.90
2023-04-09T22:14:54.279Z,313.02
2023-04-09T22:17:24.140Z,253.98
2023-04-09T22:19:52.479Z,243.90
2023-04-09T22:22:20.961Z,274.63
2023-04-09T22:24:49.293Z,259.02
2023-04-09T22:27:17.612Z,250.40
2023-04-09T22:29:46.086Z,264.90
2023-04-09T22:32:14.606Z,244.55
2023-04-09T22:34:44.364Z,237.65
2023-04-09T22:37:12.781Z,315.73
2023-04-09T22:39:41.189Z,274.52
2023-04-09T22:42:10.332Z,250.02
2023-04-09T22:44:40.073Z,248.68
2023-04-09T22:47:08.342Z,229.15
2023-04-09T22:49:36.708Z,293.85
2023-04-09T22:52:06.564Z,276.70
2023-04-09T22:54:34.918Z,384.55
2023-04-09T22:57:03.240Z,349.30
2023-04-09T22:59:39.899Z,312.00
2023-04-09T23:02:09.396Z,284.40
2023-04-09T23:04:37.890Z,349.50
2023-04-09T23:07:07.849Z,297.88
2023-04-09T23:09:36.226Z,283.45
2023-04-09T23:12:04.592Z,316.80
2023-04-09T23:14:32.926Z,379.90
2023-04-09T23:17:01.247Z,283.02
2023-04-09T23:19:29.707Z,278.45
2023-04-09T23:21:58.007Z,285.48
2023-04-09T23:24:27.739Z,322.77
2023-04-09T23:26:56.182Z,361.92
2023-04-09T23:29:24.677Z,281.80
2023-04-09T23:31:53.107Z,304.33
2023-04-09T23:34:21.543Z,318.67
2023-04-09T23:36:49.854Z,307.25
2023-04-09T23:39:18.189Z,274.30
2023-04-09T23:41:47.853Z,321.10
2023-04-09T23:44:16.310Z,372.75
2023-04-09T23:46:44.714Z,324.30
2023-04-09T23:49:13.025Z,464.40
2023-04-09T23:51:41.334Z,325.20
2023-04-09T23:54:10.498Z,361.70
2023-04-09T23:56:38.831Z,351.02
2023-04-09T23:59:08.516Z,427.77
